Time;durP1;ratioP1;P1;durP2;ratioP2;P2;SDS_P1;SDS_P2;PMS_P1;PMS_P2;Temp;Humidity;BMP_temperature;BMP_pressure;BME280_temperature;BME280_humidity;BME280_pressure;Samples;Min_cycle;Max_cycle;Signal;HPM_P1;HPM_P2
2021/06/14 00:00:34;;;;;;;;;;;17.70;99.90;;;;;;5116142;28;19904;-74
2021/06/14 00:02:59;;;;;;;;;;;17.60;99.90;;;;;;5115903;28;20348;-74
2021/06/14 00:05:34;;;;;;;;;;;17.60;99.90;;;;;;5115339;28;19908;-75
2021/06/14 00:08:00;;;;;;;;;;;17.50;99.90;;;;;;5115847;28;19908;-75
2021/06/14 00:10:27;;;;;;;;;;;17.60;99.90;;;;;;5114162;28;19950;-75
2021/06/14 00:12:53;;;;;;;;;;;17.50;99.90;;;;;;5115129;28;19903;-75
2021/06/14 00:15:19;;;;;;;;;;;17.50;99.90;;;;;;5115397;28;20276;-74
2021/06/14 00:17:44;;;;;;;;;;;17.50;99.90;;;;;;5115092;28;19914;-74
2021/06/14 00:20:11;;;;;;;;;;;17.50;99.90;;;;;;5115648;28;19907;-75
2021/06/14 00:22:37;;;;;;;;;;;17.50;99.90;;;;;;5114509;28;20305;-73
2021/06/14 00:25:04;;;;;;;;;;;17.50;99.90;;;;;;5114900;28;19904;-75
2021/06/14 00:27:30;;;;;;;;;;;17.50;99.90;;;;;;5115395;28;19907;-74
2021/06/14 00:29:55;;;;;;;;;;;17.50;99.90;;;;;;5115509;28;20374;-75
2021/06/14 00:32:21;;;;;;;;;;;17.50;99.90;;;;;;5114529;28;20008;-75
2021/06/14 00:34:47;;;;;;;;;;;17.50;99.90;;;;;;5115041;28;19911;-75
2021/06/14 00:37:13;;;;;;;;;;;17.40;99.90;;;;;;5115413;28;19910;-73
2021/06/14 00:39:38;;;;;;;;;;;17.50;99.90;;;;;;5114603;28;19904;-75
2021/06/14 00:42:04;;;;;;;;;;;17.50;99.90;;;;;;5115316;28;19982;-75
2021/06/14 00:44:29;;;;;;;;;;;17.50;99.90;;;;;;5115451;28;19903;-75
2021/06/14 00:46:55;;;;;;;;;;;17.50;99.90;;;;;;5113602;28;19904;-75
2021/06/14 00:49:20;;;;;;;;;;;17.50;99.90;;;;;;5114882;28;20347;-74
2021/06/14 00:51:46;;;;;;;;;;;17.50;99.90;;;;;;5115075;28;19907;-74
2021/06/14 00:54:11;;;;;;;;;;;17.50;99.90;;;;;;5113765;28;20291;-74
2021/06/14 00:56:40;;;;;;;;;;;17.40;99.90;;;;;;5114709;28;20317;-75
2021/06/14 00:59:06;;;;;;;;;;;17.40;99.90;;;;;;5114458;28;19998;-75
2021/06/14 01:01:31;;;;;;;;;;;17.40;99.90;;;;;;5114313;28;19953;-75
2021/06/14 01:03:56;;;;;;;;;;;17.40;99.90;;;;;;5114857;28;20401;-75
2021/06/14 01:06:22;;;;;;;;;;;17.40;99.90;;;;;;5114778;28;19911;-74
2021/06/14 01:08:49;;;;;;;;;;;17.40;99.90;;;;;;5113985;28;19911;-75
2021/06/14 01:11:18;;;;;;;;;;;17.30;99.90;;;;;;5114588;28;20272;-75
2021/06/14 01:13:57;;;;;;;;;;;17.30;99.90;;;;;;5114292;28;19961;-75
2021/06/14 01:16:37;;;;;;;;;;;17.30;99.90;;;;;;5114323;28;19911;-75
2021/06/14 01:19:14;;;;;;;;;;;17.30;99.90;;;;;;5114405;28;19911;-75
2021/06/14 01:21:42;;;;;;;;;;;17.20;99.90;;;;;;5113524;28;19907;-75
2021/06/14 01:24:30;;;;;;;;;;;17.20;99.90;;;;;;5114451;28;19956;-75
2021/06/14 01:26:59;;;;;;;;;;;17.20;99.90;;;;;;5114346;28;20355;-75
2021/06/14 01:29:25;;;;;;;;;;;17.10;99.90;;;;;;5095463;28;19904;-75
2021/06/14 01:31:51;;;;;;;;;;;17.10;99.90;;;;;;5114404;28;20323;-75
2021/06/14 01:34:16;;;;;;;;;;;17.00;99.90;;;;;;5113871;28;19954;-75
2021/06/14 01:36:43;;;;;;;;;;;17.00;99.90;;;;;;5113573;28;19910;-75
2021/06/14 01:39:09;;;;;;;;;;;17.00;99.90;;;;;;5114853;28;19904;-75
2021/06/14 01:41:35;;;;;;;;;;;16.90;99.90;;;;;;5114542;28;19904;-76
2021/06/14 01:44:01;;;;;;;;;;;16.90;99.90;;;;;;5113224;28;20350;-75
2021/06/14 01:46:29;;;;;;;;;;;16.90;99.90;;;;;;5113997;28;19908;-74
2021/06/14 01:48:55;;;;;;;;;;;16.90;99.90;;;;;;5116956;28;19907;-75
2021/06/14 01:51:23;;;;;;;;;;;16.80;99.90;;;;;;5113999;28;19999;-74
2021/06/14 01:54:07;;;;;;;;;;;16.80;99.90;;;;;;5113842;28;19903;-76
2021/06/14 01:56:36;;;;;;;;;;;16.70;99.90;;;;;;5113916;28;20322;-74
2021/06/14 01:59:03;;;;;;;;;;;16.70;99.90;;;;;;5116797;28;19954;-75
2021/06/14 02:01:30;;;;;;;;;;;16.70;99.90;;;;;;5114535;28;19904;-74
2021/06/14 02:03:56;;;;;;;;;;;16.70;99.90;;;;;;5117969;28;19942;-75
2021/06/14 02:06:24;;;;;;;;;;;16.70;99.90;;;;;;5116732;28;20291;-74
2021/06/14 02:08:49;;;;;;;;;;;16.60;99.90;;;;;;5113594;28;19943;-74
2021/06/14 02:11:15;;;;;;;;;;;16.70;99.90;;;;;;5113088;28;19904;-75
2021/06/14 02:13:40;;;;;;;;;;;16.60;99.90;;;;;;5113646;28;19986;-75
2021/06/14 02:16:06;;;;;;;;;;;16.60;99.90;;;;;;5113482;28;19972;-76
2021/06/14 02:18:32;;;;;;;;;;;16.50;99.90;;;;;;5112610;28;20358;-75
2021/06/14 02:20:57;;;;;;;;;;;16.50;99.90;;;;;;5114374;28;20000;-76
2021/06/14 02:23:23;;;;;;;;;;;16.50;99.90;;;;;;5113841;28;19904;-75
2021/06/14 02:25:48;;;;;;;;;;;16.50;99.90;;;;;;5112901;28;19908;-75
2021/06/14 02:28:16;;;;;;;;;;;16.50;99.90;;;;;;5113838;28;20295;-74
2021/06/14 02:30:41;;;;;;;;;;;16.40;99.90;;;;;;5113953;28;19908;-75
2021/06/14 02:33:07;;;;;;;;;;;16.40;99.90;;;;;;5112707;28;20271;-74
2021/06/14 02:35:32;;;;;;;;;;;16.50;99.90;;;;;;5113298;28;19919;-74
2021/06/14 02:38:00;;;;;;;;;;;16.40;99.90;;;;;;5113564;28;19929;-75
2021/06/14 02:40:31;;;;;;;;;;;16.40;99.90;;;;;;5112669;28;19941;-75
2021/06/14 02:43:04;;;;;;;;;;;16.40;99.90;;;;;;5113332;28;19911;-75
2021/06/14 02:45:30;;;;;;;;;;;16.40;99.90;;;;;;5115031;28;19927;-74
2021/06/14 02:47:56;;;;;;;;;;;16.40;99.90;;;;;;5117587;28;19929;-74
2021/06/14 02:50:22;;;;;;;;;;;16.30;99.90;;;;;;5117432;28;19904;-75
2021/06/14 02:52:50;;;;;;;;;;;16.30;99.90;;;;;;5116288;28;19935;-74
2021/06/14 02:55:17;;;;;;;;;;;16.30;99.90;;;;;;5117170;28;20002;-75
2021/06/14 02:57:52;;;;;;;;;;;16.30;99.90;;;;;;5117084;28;19915;-74
2021/06/14 03:00:18;;;;;;;;;;;16.30;99.90;;;;;;5116571;28;20251;-75
2021/06/14 03:02:44;;;;;;;;;;;16.20;99.90;;;;;;5117066;28;19904;-74
2021/06/14 03:05:10;;;;;;;;;;;16.20;99.90;;;;;;5117152;28;19908;-76
2021/06/14 03:07:35;;;;;;;;;;;16.20;99.90;;;;;;5116416;28;19904;-75
2021/06/14 03:10:04;;;;;;;;;;;16.20;99.90;;;;;;5116771;28;20428;-75
2021/06/14 03:12:29;;;;;;;;;;;16.20;99.90;;;;;;5117196;28;19903;-74
2021/06/14 03:14:55;;;;;;;;;;;16.20;99.90;;;;;;5116098;28;20378;-74
2021/06/14 03:17:21;;;;;;;;;;;16.20;99.90;;;;;;5116760;28;19983;-74
2021/06/14 03:19:47;;;;;;;;;;;16.20;99.90;;;;;;5116419;28;19903;-74
2021/06/14 03:22:13;;;;;;;;;;;16.10;99.90;;;;;;5115777;28;19903;-75
2021/06/14 03:24:39;;;;;;;;;;;15.40;99.90;;;;;;5116772;28;20278;-75
2021/06/14 03:27:05;;;;;;;;;;;16.20;99.90;;;;;;5116621;28;19907;-75
2021/06/14 03:29:31;;;;;;;;;;;16.10;99.90;;;;;;5115585;28;19903;-76
2021/06/14 03:31:57;;;;;;;;;;;16.20;99.90;;;;;;5116862;28;19904;-76
2021/06/14 03:34:24;;;;;;;;;;;16.10;99.90;;;;;;5116606;28;19912;-75
2021/06/14 03:36:49;;;;;;;;;;;16.10;99.90;;;;;;5115917;28;20406;-75
2021/06/14 03:39:16;;;;;;;;;;;16.10;99.90;;;;;;5116444;28;19993;-75
2021/06/14 03:41:46;;;;;;;;;;;16.10;99.90;;;;;;5115170;28;20343;-74
2021/06/14 03:44:12;;;;;;;;;;;16.20;99.90;;;;;;5116085;28;19908;-74
2021/06/14 03:46:37;;;;;;;;;;;16.20;99.90;;;;;;5116151;28;20373;-75
2021/06/14 03:49:03;;;;;;;;;;;16.20;99.90;;;;;;5115291;28;19991;-74
2021/06/14 03:51:29;;;;;;;;;;;16.20;99.90;;;;;;5115961;28;20000;-75
2021/06/14 03:53:57;;;;;;;;;;;16.20;99.90;;;;;;5115776;28;19907;-75
2021/06/14 03:56:24;;;;;;;;;;;16.20;99.90;;;;;;5114640;28;19943;-75
2021/06/14 03:58:49;;;;;;;;;;;16.20;99.90;;;;;;5116778;28;20018;-75
2021/06/14 04:01:15;;;;;;;;;;;16.20;99.90;;;;;;5115964;28;20359;-76
2021/06/14 04:03:42;;;;;;;;;;;16.20;99.90;;;;;;5115125;28;20331;-75
2021/06/14 04:06:07;;;;;;;;;;;16.20;99.90;;;;;;5116351;28;20313;-75
2021/06/14 04:08:36;;;;;;;;;;;16.30;99.90;;;;;;5117351;28;20015;-75
2021/06/14 04:11:02;;;;;;;;;;;16.30;99.90;;;;;;5119130;28;19904;-75
2021/06/14 04:13:27;;;;;;;;;;;16.30;99.90;;;;;;5122592;28;19904;-75
2021/06/14 04:15:53;;;;;;;;;;;16.30;99.90;;;;;;5115768;28;19911;-74
2021/06/14 04:18:18;;;;;;;;;;;16.30;99.90;;;;;;5114391;28;19903;-75
2021/06/14 04:20:43;;;;;;;;;;;16.30;99.90;;;;;;5115646;28;19926;-75
2021/06/14 04:23:09;;;;;;;;;;;16.40;99.90;;;;;;5115402;28;19911;-74
2021/06/14 04:25:35;;;;;;;;;;;16.40;99.90;;;;;;5114744;28;19916;-76
2021/06/14 04:28:02;;;;;;;;;;;16.40;99.90;;;;;;5115344;28;20010;-76
2021/06/14 04:30:28;;;;;;;;;;;16.50;99.90;;;;;;5115411;28;19904;-76
2021/06/14 04:32:53;;;;;;;;;;;16.50;99.90;;;;;;5114584;28;19911;-75
2021/06/14 04:35:19;;;;;;;;;;;16.60;99.90;;;;;;5115012;28;19935;-75
2021/06/14 04:37:45;;;;;;;;;;;16.60;99.90;;;;;;5115106;28;20027;-76
2021/06/14 04:40:11;;;;;;;;;;;16.70;99.90;;;;;;5114462;28;20045;-76
2021/06/14 04:42:36;;;;;;;;;;;16.70;99.90;;;;;;5115009;28;20349;-76
2021/06/14 04:45:03;;;;;;;;;;;16.70;99.90;;;;;;5114380;28;19931;-75
2021/06/14 04:47:28;;;;;;;;;;;16.80;99.90;;;;;;5115019;28;20263;-75
2021/06/14 04:49:54;;;;;;;;;;;16.80;99.90;;;;;;5114750;28;19904;-75
2021/06/14 04:52:19;;;;;;;;;;;16.90;99.90;;;;;;5114514;28;20360;-75
2021/06/14 04:54:45;;;;;;;;;;;17.00;99.90;;;;;;5114420;28;19916;-74
2021/06/14 04:57:10;;;;;;;;;;;17.00;99.90;;;;;;5114700;28;19987;-74
2021/06/14 04:59:36;;;;;;;;;;;17.10;99.90;;;;;;5114422;28;20509;-75
2021/06/14 05:02:01;;;;;;;;;;;17.10;99.90;;;;;;5114318;28;19903;-74
2021/06/14 05:04:27;;;;;;;;;;;17.20;99.90;;;;;;5114773;28;19954;-74
2021/06/14 05:06:53;;;;;;;;;;;17.30;99.90;;;;;;5113879;28;20319;-74
2021/06/14 05:09:18;;;;;;;;;;;17.30;99.90;;;;;;5114431;28;20364;-74
2021/06/14 05:11:45;;;;;;;;;;;17.30;99.90;;;;;;5114475;28;19904;-74
2021/06/14 05:14:10;;;;;;;;;;;17.40;99.90;;;;;;5113450;28;19915;-75
2021/06/14 05:16:36;;;;;;;;;;;17.40;99.90;;;;;;5114601;28;19903;-73
2021/06/14 05:19:01;;;;;;;;;;;17.50;99.90;;;;;;5114364;28;19904;-76
2021/06/14 05:21:27;;;;;;;;;;;17.60;99.90;;;;;;5113290;28;20378;-76
2021/06/14 05:23:53;;;;;;;;;;;17.60;99.90;;;;;;5114689;28;19921;-75
2021/06/14 05:26:18;;;;;;;;;;;17.70;99.90;;;;;;5114590;28;19904;-75
2021/06/14 05:28:44;;;;;;;;;;;17.70;99.90;;;;;;5113459;28;20418;-75
2021/06/14 05:31:09;;;;;;;;;;;17.80;99.90;;;;;;5114143;28;19908;-74
2021/06/14 05:33:35;;;;;;;;;;;17.80;99.90;;;;;;5114358;28;19904;-75
2021/06/14 05:36:01;;;;;;;;;;;17.80;99.90;;;;;;5112919;28;20389;-76
2021/06/14 05:38:26;;;;;;;;;;;17.90;99.90;;;;;;5113914;28;19961;-74
2021/06/14 05:40:52;;;;;;;;;;;18.00;99.90;;;;;;5113975;28;19909;-76
2021/06/14 05:43:17;;;;;;;;;;;18.00;99.90;;;;;;5113173;28;19916;-75
2021/06/14 05:45:43;;;;;;;;;;;18.00;99.90;;;;;;5113925;28;19917;-75
2021/06/14 05:48:08;;;;;;;;;;;18.10;99.90;;;;;;5113343;28;19904;-75
2021/06/14 05:50:34;;;;;;;;;;;18.10;99.90;;;;;;5113318;28;19903;-74
2021/06/14 05:52:59;;;;;;;;;;;18.20;99.90;;;;;;5113692;28;19991;-75
2021/06/14 05:55:25;;;;;;;;;;;18.10;99.90;;;;;;5112671;28;19916;-74
2021/06/14 05:57:50;;;;;;;;;;;18.20;99.90;;;;;;5113652;28;19948;-75
2021/06/14 06:00:16;;;;;;;;;;;18.30;99.90;;;;;;5113751;28;20359;-74
2021/06/14 06:02:41;;;;;;;;;;;18.30;99.90;;;;;;5114124;28;19911;-73
2021/06/14 06:05:08;;;;;;;;;;;18.30;99.90;;;;;;5116740;28;19925;-74
2021/06/14 06:07:36;;;;;;;;;;;18.40;99.90;;;;;;5113279;28;19994;-75
2021/06/14 06:10:03;;;;;;;;;;;18.40;99.90;;;;;;5112791;28;19903;-76
2021/06/14 06:12:28;;;;;;;;;;;18.50;99.90;;;;;;5113559;28;20348;-75
2021/06/14 06:14:54;;;;;;;;;;;18.50;99.90;;;;;;5115421;28;19964;-75
2021/06/14 06:17:19;;;;;;;;;;;18.60;99.90;;;;;;5113057;28;19908;-74
2021/06/14 06:19:45;;;;;;;;;;;18.60;99.90;;;;;;5118040;28;19918;-74
2021/06/14 06:22:15;;;;;;;;;;;18.70;99.90;;;;;;5118209;28;19904;-75
2021/06/14 06:24:40;;;;;;;;;;;18.80;99.90;;;;;;5116862;28;19911;-75
2021/06/14 06:27:06;;;;;;;;;;;18.80;99.90;;;;;;5117630;28;19910;-74
2021/06/14 06:29:32;;;;;;;;;;;18.90;99.90;;;;;;5117589;28;20100;-74
2021/06/14 06:31:57;;;;;;;;;;;19.00;99.90;;;;;;5117086;28;19953;-76
2021/06/14 06:34:23;;;;;;;;;;;19.10;99.90;;;;;;5117487;28;19916;-74
2021/06/14 06:36:49;;;;;;;;;;;19.10;99.90;;;;;;5117353;28;20009;-76
2021/06/14 06:39:14;;;;;;;;;;;19.10;99.90;;;;;;5116895;28;19944;-76
2021/06/14 06:41:40;;;;;;;;;;;19.20;99.90;;;;;;5117366;28;19908;-76
2021/06/14 06:44:05;;;;;;;;;;;19.20;99.90;;;;;;5117485;28;20007;-75
2021/06/14 06:46:31;;;;;;;;;;;19.20;99.90;;;;;;5116567;28;19904;-74
2021/06/14 06:48:56;;;;;;;;;;;19.40;99.90;;;;;;5117034;28;19907;-75
2021/06/14 06:51:22;;;;;;;;;;;19.50;99.90;;;;;;5117264;28;19903;-76
2021/06/14 06:53:47;;;;;;;;;;;19.50;99.90;;;;;;5116002;28;20253;-76
2021/06/14 06:56:13;;;;;;;;;;;19.60;99.90;;;;;;5116616;28;19923;-76
2021/06/14 06:58:38;;;;;;;;;;;19.70;99.90;;;;;;5116433;28;19907;-75
2021/06/14 07:01:04;;;;;;;;;;;19.70;99.90;;;;;;5117027;28;20305;-75
2021/06/14 07:03:29;;;;;;;;;;;19.80;99.90;;;;;;5116826;28;20006;-75
2021/06/14 07:05:55;;;;;;;;;;;19.80;99.90;;;;;;5116712;28;20023;-75
2021/06/14 07:08:21;;;;;;;;;;;19.90;99.90;;;;;;5116956;28;20002;-75
2021/06/14 07:10:46;;;;;;;;;;;20.00;99.90;;;;;;5117128;28;19992;-76
2021/06/14 07:13:13;;;;;;;;;;;20.10;99.90;;;;;;5116419;28;20031;-75
2021/06/14 07:15:39;;;;;;;;;;;20.10;99.90;;;;;;5117172;28;19912;-75
2021/06/14 07:18:05;;;;;;;;;;;20.20;99.90;;;;;;5116816;28;19926;-75
2021/06/14 07:20:33;;;;;;;;;;;20.30;99.90;;;;;;5116141;28;19908;-75
2021/06/14 07:22:59;;;;;;;;;;;20.40;99.90;;;;;;5116896;28;20014;-76
2021/06/14 07:25:24;;;;;;;;;;;20.40;99.90;;;;;;5116673;28;19992;-76
2021/06/14 07:27:50;;;;;;;;;;;20.50;99.90;;;;;;5115450;28;19961;-76
2021/06/14 07:30:16;;;;;;;;;;;20.60;99.90;;;;;;5116733;28;19904;-76
2021/06/14 07:32:42;;;;;;;;;;;20.60;99.90;;;;;;5116623;28;20274;-75
2021/06/14 07:35:08;;;;;;;;;;;20.70;99.30;;;;;;5115931;28;20006;-75
2021/06/14 07:37:34;;;;;;;;;;;20.70;98.90;;;;;;5116321;28;20017;-76
2021/06/14 07:39:59;;;;;;;;;;;20.70;98.30;;;;;;5116357;28;19908;-76
2021/06/14 07:42:24;;;;;;;;;;;20.70;98.10;;;;;;5115440;28;19907;-75
2021/06/14 07:44:50;;;;;;;;;;;20.80;98.00;;;;;;5116096;28;19911;-76
2021/06/14 07:47:15;;;;;;;;;;;20.90;97.60;;;;;;5116135;28;20339;-76
2021/06/14 07:49:42;;;;;;;;;;;20.90;97.40;;;;;;5115463;28;19903;-76
2021/06/14 07:52:08;;;;;;;;;;;21.00;97.20;;;;;;5116096;28;19904;-75
2021/06/14 07:54:34;;;;;;;;;;;21.20;97.10;;;;;;5115832;28;20267;-76
2021/06/14 07:56:59;;;;;;;;;;;21.20;97.20;;;;;;5115209;28;19919;-75
2021/06/14 07:59:25;;;;;;;;;;;21.30;97.00;;;;;;5116174;28;19908;-76
2021/06/14 08:01:51;;;;;;;;;;;21.40;97.00;;;;;;5115161;28;19910;-76
2021/06/14 08:04:17;;;;;;;;;;;21.40;96.60;;;;;;5115269;28;19914;-76
2021/06/14 08:06:42;;;;;;;;;;;21.40;95.50;;;;;;5115936;28;19904;-76
2021/06/14 08:09:10;;;;;;;;;;;21.40;95.20;;;;;;5114924;28;19973;-76
2021/06/14 08:11:36;;;;;;;;;;;21.50;95.20;;;;;;5116210;28;19911;-76
2021/06/14 08:14:02;;;;;;;;;;;21.50;94.70;;;;;;5115786;28;20271;-76
2021/06/14 08:16:28;;;;;;;;;;;21.60;94.50;;;;;;5114818;28;20255;-76
2021/06/14 08:19:06;;;;;;;;;;;21.70;94.40;;;;;;5115339;28;19904;-76
2021/06/14 08:26:59;;;;;;;;;;;21.90;94.10;;;;;;5119729;28;19941;-75
2021/06/14 08:29:26;;;;;;;;;;;22.00;94.00;;;;;;5119030;28;19904;-76
2021/06/14 08:31:52;;;;;;;;;;;22.00;93.20;;;;;;5114242;28;19929;-74
2021/06/14 08:34:17;;;;;;;;;;;22.10;92.60;;;;;;5115127;28;19913;-75
2021/06/14 08:36:43;;;;;;;;;;;22.10;92.60;;;;;;5096564;28;20352;-75
2021/06/14 08:39:12;;;;;;;;;;;22.20;92.00;;;;;;5114064;28;19934;-74
2021/06/14 08:41:39;;;;;;;;;;;22.30;91.40;;;;;;5114757;28;19904;-75
2021/06/14 08:44:05;;;;;;;;;;;22.40;91.00;;;;;;5113618;28;19903;-74
2021/06/14 08:46:30;;;;;;;;;;;22.40;90.80;;;;;;5114805;28;20217;-76
2021/06/14 08:48:56;;;;;;;;;;;22.50;90.80;;;;;;5114795;28;19904;-75
2021/06/14 08:51:22;;;;;;;;;;;22.60;90.40;;;;;;5114198;28;19908;-76
2021/06/14 08:53:54;;;;;;;;;;;22.60;90.40;;;;;;5114632;28;19903;-76
2021/06/14 08:56:21;;;;;;;;;;;22.70;89.80;;;;;;5114583;28;20006;-76
2021/06/14 08:58:48;;;;;;;;;;;22.80;90.20;;;;;;5114093;28;19956;-77
2021/06/14 09:01:13;;;;;;;;;;;22.80;89.60;;;;;;5113729;28;19911;-74
2021/06/14 09:03:39;;;;;;;;;;;22.90;88.20;;;;;;5114601;28;20351;-74
2021/06/14 09:06:04;;;;;;;;;;;22.90;88.90;;;;;;5113988;28;19966;-74
2021/06/14 09:08:30;;;;;;;;;;;23.00;89.00;;;;;;5114552;28;19961;-74
2021/06/14 09:10:55;;;;;;;;;;;23.10;86.90;;;;;;5115179;28;19998;-75
2021/06/14 09:13:28;;;;;;;;;;;23.10;87.00;;;;;;5113621;28;20256;-75
2021/06/14 09:16:03;;;;;;;;;;;23.20;85.30;;;;;;5114369;28;19911;-75
2021/06/14 09:18:28;;;;;;;;;;;23.30;85.20;;;;;;5114798;28;19972;-74
2021/06/14 09:21:02;;;;;;;;;;;23.30;83.20;;;;;;5113533;28;20320;-76
2021/06/14 09:23:57;;;;;;;;;;;23.40;84.00;;;;;;5114244;28;19910;-76
2021/06/14 09:26:24;;;;;;;;;;;23.50;84.40;;;;;;5099911;28;19911;-76
2021/06/14 09:28:51;;;;;;;;;;;23.50;82.10;;;;;;5114256;28;19911;-75
2021/06/14 09:31:16;;;;;;;;;;;23.70;81.00;;;;;;5114474;28;19911;-76
2021/06/14 09:33:43;;;;;;;;;;;23.70;79.20;;;;;;5113397;28;19904;-74
2021/06/14 09:36:08;;;;;;;;;;;23.80;78.80;;;;;;5114040;28;19912;-76
2021/06/14 09:38:34;;;;;;;;;;;23.90;77.90;;;;;;5113962;28;19927;-75
2021/06/14 09:40:59;;;;;;;;;;;23.90;78.00;;;;;;5113423;28;19953;-77
2021/06/14 09:43:29;;;;;;;;;;;24.00;77.70;;;;;;5113650;28;20040;-76
2021/06/14 09:45:56;;;;;;;;;;;24.10;77.80;;;;;;5113914;28;19986;-77
2021/06/14 09:48:23;;;;;;;;;;;24.10;78.00;;;;;;5112883;28;20491;-76
2021/06/14 09:50:50;;;;;;;;;;;24.10;78.10;;;;;;5114052;28;19903;-76
2021/06/14 09:53:17;;;;;;;;;;;24.20;77.30;;;;;;5113644;28;19903;-77
2021/06/14 09:55:43;;;;;;;;;;;24.30;77.10;;;;;;5112002;28;19923;-76
2021/06/14 09:58:25;;;;;;;;;;;24.30;76.10;;;;;;5113697;28;19984;-76
2021/06/14 10:00:52;;;;;;;;;;;24.40;75.40;;;;;;5112650;28;20260;-76
2021/06/14 10:03:18;;;;;;;;;;;24.40;75.00;;;;;;5112997;28;19908;-77
2021/06/14 10:05:48;;;;;;;;;;;24.60;75.60;;;;;;5113780;28;19958;-76
2021/06/14 10:08:22;;;;;;;;;;;24.60;75.10;;;;;;5113439;28;19903;-76
2021/06/14 10:10:47;;;;;;;;;;;24.70;73.70;;;;;;5113108;28;20394;-75
2021/06/14 10:13:13;;;;;;;;;;;24.80;70.50;;;;;;5113765;28;19908;-75
2021/06/14 10:15:41;;;;;;;;;;;24.80;70.40;;;;;;5112810;28;19919;-76
2021/06/14 10:18:10;;;;;;;;;;;24.90;71.20;;;;;;5113760;28;19904;-74
2021/06/14 10:20:37;;;;;;;;;;;25.00;71.10;;;;;;5118744;28;19904;-75
2021/06/14 10:23:02;;;;;;;;;;;25.00;66.80;;;;;;5113276;28;19904;-75
2021/06/14 10:25:28;;;;;;;;;;;25.00;65.80;;;;;;5113303;28;19904;-74
2021/06/14 10:27:54;;;;;;;;;;;25.10;66.30;;;;;;5113512;28;20267;-76
2021/06/14 10:30:23;;;;;;;;;;;25.20;67.50;;;;;;5115574;28;19931;-75
2021/06/14 10:32:49;;;;;;;;;;;25.30;66.60;;;;;;5114869;28;19942;-76
2021/06/14 10:35:16;;;;;;;;;;;25.30;64.30;;;;;;5118774;28;19934;-75
2021/06/14 10:37:47;;;;;;;;;;;25.40;65.00;;;;;;5115575;28;19911;-75
2021/06/14 10:40:14;;;;;;;;;;;25.40;64.90;;;;;;5113324;28;19911;-76
2021/06/14 10:42:41;;;;;;;;;;;25.40;64.40;;;;;;5113767;28;19949;-75
2021/06/14 10:45:11;;;;;;;;;;;25.50;63.50;;;;;;5112722;28;20327;-75
2021/06/14 10:47:38;;;;;;;;;;;25.50;59.10;;;;;;5113460;28;19957;-75
2021/06/14 10:50:04;;;;;;;;;;;26.50;59.70;;;;;;5113424;28;19956;-76
2021/06/14 10:52:40;;;;;;;;;;;25.60;58.80;;;;;;5112225;28;20312;-76
2021/06/14 10:55:10;;;;;;;;;;;25.70;59.10;;;;;;5113061;28;19911;-75
2021/06/14 10:57:35;;;;;;;;;;;25.70;59.40;;;;;;5112478;28;20205;-75
2021/06/14 11:00:01;;;;;;;;;;;25.80;61.20;;;;;;5112975;28;19910;-74
2021/06/14 11:02:26;;;;;;;;;;;25.90;60.60;;;;;;5113086;28;19942;-77
2021/06/14 11:05:02;;;;;;;;;;;25.90;60.70;;;;;;5112501;28;19904;-76
2021/06/14 11:07:29;;;;;;;;;;;26.00;61.20;;;;;;5117218;28;19904;-75
2021/06/14 11:09:55;;;;;;;;;;;26.00;59.60;;;;;;5116977;28;19908;-76
2021/06/14 11:12:24;;;;;;;;;;;25.90;59.80;;;;;;5115955;28;20415;-76
2021/06/14 11:14:50;;;;;;;;;;;26.10;60.00;;;;;;5116810;28;19944;-76
2021/06/14 11:17:21;;;;;;;;;;;26.10;61.20;;;;;;5116924;28;19904;-76
2021/06/14 11:19:48;;;;;;;;;;;26.20;60.10;;;;;;5115718;28;19911;-76
2021/06/14 11:22:15;;;;;;;;;;;26.30;60.30;;;;;;5116601;28;19903;-76
2021/06/14 11:24:41;;;;;;;;;;;26.40;58.70;;;;;;5116582;28;20263;-75
2021/06/14 11:27:09;;;;;;;;;;;26.50;58.90;;;;;;5116022;28;19904;-76
2021/06/14 11:29:42;;;;;;;;;;;26.40;58.00;;;;;;5116328;28;19904;-76
2021/06/14 11:32:07;;;;;;;;;;;26.50;57.80;;;;;;5116325;28;19994;-76
2021/06/14 11:34:40;;;;;;;;;;;26.50;57.70;;;;;;5115720;28;20063;-76
2021/06/14 11:37:06;;;;;;;;;;;26.70;58.20;;;;;;5116253;28;19904;-76
2021/06/14 11:39:32;;;;;;;;;;;26.70;56.90;;;;;;5116288;28;20003;-75
2021/06/14 11:42:06;;;;;;;;;;;26.70;57.10;;;;;;5115400;28;20004;-76
2021/06/14 11:44:32;;;;;;;;;;;26.70;56.50;;;;;;5116175;28;19903;-76
2021/06/14 11:47:18;;;;;;;;;;;26.80;55.40;;;;;;5115430;28;19923;-76
2021/06/14 11:49:45;;;;;;;;;;;26.90;55.80;;;;;;5105532;28;19934;-76
2021/06/14 11:52:16;;;;;;;;;;;27.00;56.60;;;;;;5116023;28;19951;-75
2021/06/14 11:54:42;;;;;;;;;;;27.10;57.60;;;;;;5115169;28;19911;-76
2021/06/14 11:57:07;;;;;;;;;;;27.10;58.20;;;;;;5115614;28;19937;-75
2021/06/14 11:59:34;;;;;;;;;;;27.30;57.40;;;;;;5115941;28;19950;-75
2021/06/14 12:02:01;;;;;;;;;;;27.40;56.30;;;;;;5115085;28;19916;-75
2021/06/14 12:04:26;;;;;;;;;;;27.50;55.60;;;;;;5115869;28;19911;-75
2021/06/14 12:06:53;;;;;;;;;;;27.50;55.80;;;;;;5115817;28;19904;-74
2021/06/14 12:09:26;;;;;;;;;;;27.50;55.10;;;;;;5114887;28;19903;-74
2021/06/14 12:11:56;;;;;;;;;;;27.60;54.40;;;;;;5115610;28;19952;-75
2021/06/14 12:14:22;;;;;;;;;;;27.60;54.60;;;;;;5115516;28;19930;-75
2021/06/14 12:16:54;;;;;;;;;;;27.70;55.50;;;;;;5114165;28;19935;-76
2021/06/14 12:19:20;;;;;;;;;;;27.80;55.60;;;;;;5115357;28;19911;-74
2021/06/14 12:21:55;;;;;;;;;;;27.90;55.60;;;;;;5097071;28;19933;-74
2021/06/14 12:24:21;;;;;;;;;;;27.90;54.60;;;;;;5114445;28;19904;-75
2021/06/14 12:26:46;;;;;;;;;;;27.90;55.80;;;;;;5116471;28;19903;-77
2021/06/14 12:29:18;;;;;;;;;;;28.00;54.30;;;;;;5121327;28;19904;-75
2021/06/14 12:31:44;;;;;;;;;;;28.10;53.00;;;;;;5115325;28;19907;-75
2021/06/14 12:34:10;;;;;;;;;;;28.00;53.60;;;;;;5115190;28;19907;-75
2021/06/14 12:36:35;;;;;;;;;;;28.10;55.20;;;;;;5114299;28;20002;-76
2021/06/14 12:39:00;;;;;;;;;;;28.20;53.30;;;;;;5121043;28;19957;-76
2021/06/14 12:41:26;;;;;;;;;;;28.20;54.50;;;;;;5115555;28;19904;-76
2021/06/14 12:43:53;;;;;;;;;;;28.30;54.60;;;;;;5121352;28;19904;-76
2021/06/14 12:46:21;;;;;;;;;;;28.30;53.70;;;;;;5116539;28;19971;-76
2021/06/14 12:48:50;;;;;;;;;;;28.40;52.60;;;;;;5114345;28;20032;-76
2021/06/14 12:51:16;;;;;;;;;;;28.50;54.90;;;;;;5114061;28;19955;-76
2021/06/14 12:53:42;;;;;;;;;;;28.50;57.60;;;;;;5114701;28;19904;-75
2021/06/14 12:56:12;;;;;;;;;;;28.60;58.20;;;;;;5114491;28;19923;-74
2021/06/14 12:58:40;;;;;;;;;;;28.60;56.70;;;;;;5114165;28;19915;-75
2021/06/14 13:01:08;;;;;;;;;;;28.40;56.20;;;;;;5114608;28;20231;-76
2021/06/14 13:03:34;;;;;;;;;;;28.20;56.30;;;;;;5114762;28;20271;-76
2021/06/14 13:06:00;;;;;;;;;;;28.20;59.10;;;;;;5114135;28;19907;-76
2021/06/14 13:08:39;;;;;;;;;;;28.30;58.00;;;;;;5114542;28;19911;-75
2021/06/14 13:11:04;;;;;;;;;;;28.30;57.80;;;;;;5114619;28;19959;-75
2021/06/14 13:13:36;;;;;;;;;;;28.30;56.50;;;;;;5113742;28;20002;-75
2021/06/14 13:16:01;;;;;;;;;;;28.20;58.00;;;;;;5114355;28;19912;-75
2021/06/14 13:18:27;;;;;;;;;;;28.40;56.90;;;;;;5113443;28;19911;-75
2021/06/14 13:20:52;;;;;;;;;;;28.40;56.00;;;;;;5113819;28;19949;-76
2021/06/14 13:23:19;;;;;;;;;;;28.50;56.50;;;;;;5114363;28;19903;-76
2021/06/14 13:25:46;;;;;;;;;;;28.60;56.10;;;;;;5113774;28;19925;-76
2021/06/14 13:28:13;;;;;;;;;;;28.60;55.50;;;;;;5114120;28;19903;-76
2021/06/14 13:30:40;;;;;;;;;;;28.70;56.50;;;;;;5114147;28;20270;-75
2021/06/14 13:33:07;;;;;;;;;;;28.80;55.10;;;;;;5113173;28;20284;-76
2021/06/14 13:35:32;;;;;;;;;;;28.90;56.70;;;;;;5114331;28;20380;-74
2021/06/14 13:37:59;;;;;;;;;;;29.00;55.00;;;;;;5113889;28;20054;-73
2021/06/14 13:40:29;;;;;;;;;;;29.00;54.20;;;;;;5113395;28;19904;-74
2021/06/14 13:43:02;;;;;;;;;;;29.10;54.10;;;;;;5113965;28;20007;-74
2021/06/14 13:45:28;;;;;;;;;;;29.10;53.50;;;;;;5113646;28;19904;-75
2021/06/14 13:47:57;;;;;;;;;;;29.20;55.00;;;;;;5113433;28;19911;-75
2021/06/14 13:50:23;;;;;;;;;;;29.20;54.80;;;;;;5113741;28;19911;-76
2021/06/14 13:52:48;;;;;;;;;;;29.40;53.50;;;;;;5113589;28;19907;-75
2021/06/14 13:55:14;;;;;;;;;;;29.50;53.90;;;;;;5112965;28;19911;-75
2021/06/14 13:57:49;;;;;;;;;;;29.40;52.00;;;;;;5113601;28;19969;-75
2021/06/14 14:00:16;;;;;;;;;;;29.50;53.20;;;;;;5095391;28;19911;-76
2021/06/14 14:02:46;;;;;;;;;;;29.50;53.00;;;;;;5113181;28;19912;-74
2021/06/14 14:05:20;;;;;;;;;;;29.50;53.90;;;;;;5113700;28;19904;-73
2021/06/14 14:07:46;;;;;;;;;;;29.60;53.50;;;;;;5113087;28;19904;-74
2021/06/14 14:10:11;;;;;;;;;;;29.70;53.60;;;;;;5113288;28;19903;-74
2021/06/14 14:12:37;;;;;;;;;;;29.70;51.90;;;;;;5113220;28;19929;-75
2021/06/14 14:15:03;;;;;;;;;;;29.70;52.30;;;;;;5094213;28;20002;-75
2021/06/14 14:17:29;;;;;;;;;;;29.70;50.60;;;;;;5113218;28;19904;-75
2021/06/14 14:19:55;;;;;;;;;;;29.90;51.70;;;;;;5113458;28;20038;-76